Capitol Logistics 3253


KMIA
Miami International Airport
Miami, Florida, US
KMTH
The Florida Keys Marathon International Airport
Marathon, Florida, US

Activity Log

Date Flight Route Aircraft Duration
07/04/2020 CPX3253 SOUBY5 MNATE MTH SF34 0h 50m
10/23/2019 CPX653 SOUBY5 MNATE MTH SF34 0h 57m
06/16/2019 CPX653 SOUBY5 MNATE MTH SF34 0h 38m
06/05/2019 CPX653 MNATE2 MNATE SF34 0h 45m
04/30/2019 CPX653 SOUBY5 MNATE MTH SF34 0h 30m
04/07/2019 CPX653 SOUBY5 MNATE MTH SF34 0h 28m
04/02/2019 CPX653 SOUBY5 MNATE MTH SF34 0h 43m
03/20/2019 CPX653 SOUBY5 MNATE MTH SF34 1h 03m
03/06/2019 CPX653 SOUBY5 MNATE MTH SF34 0h 40m

Route Details

Aircraft Information
Primary: Saab 340AF
Backup: Not Available
Route Data
Distance: 96nm
Sched. Duration: 0h 55m
Avg. Duration: 0h 48m (-7m)
Times Flown: 9
Recm'd Route: SOUBY5 MNATE MTH
Planned Altitude: 7,000ft
Origin Wx: KMIA 291253Z 13009KT 10SM SCT020 SCT035 SCT250 28/24 A2998 RMK AO2 SLP151 T02780244
Dest. Wx: KMTH 291253Z AUTO 13008KT 10SM FEW028 28/25 A2996 RMK AO2 SLP143 T02780250
Notes:

Financial History
Total Freight: 54,995lbs
Average Load: 6,111lbs/flt
Fuel Used: 5,367lbs
Avg. Fuel Used: 596lbs/flt
Fuel Expense: $6,601
Avg. Fuel Expense: $733
Avg. Fuel Cost: $1.23/lbs
Total Gross Income: $62,361
Pilot Pay: $1,501
Total Expenses: $7,203
Total Revenue: $47,207
Average Revenue: $6,929.01